Time;durP1;ratioP1;P1;durP2;ratioP2;P2;SDS_P1;SDS_P2;PMS_P1;PMS_P2;Temp;Humidity;BMP_temperature;BMP_pressure;BME280_temperature;BME280_humidity;BME280_pressure;Samples;Min_cycle;Max_cycle;Signal;HPM_P1;HPM_P2
2021/01/07 00:01:53;;;;;;;5.23;3.23;;;-0.10;99.90;;;;;;5073128;28;20194;-62
2021/01/07 00:04:19;;;;;;;7.60;4.87;;;-0.10;99.90;;;;;;5073825;28;20280;-61
2021/01/07 00:06:46;;;;;;;8.77;4.90;;;-0.20;99.90;;;;;;5073712;28;20203;-62
2021/01/07 00:09:13;;;;;;;6.83;3.97;;;-0.10;99.90;;;;;;5073591;28;20277;-64
2021/01/07 00:11:40;;;;;;;5.70;4.43;;;-0.20;99.90;;;;;;5072547;28;21040;-62
2021/01/07 00:14:08;;;;;;;6.77;4.43;;;-0.10;99.90;;;;;;5073135;28;20595;-63
2021/01/07 00:16:35;;;;;;;6.87;4.67;;;-0.20;99.90;;;;;;5073036;28;20678;-63
2021/01/07 00:19:03;;;;;;;7.43;4.43;;;-0.20;99.90;;;;;;5072248;28;20309;-65
2021/01/07 00:21:29;;;;;;;8.33;5.07;;;-0.20;99.90;;;;;;5072416;28;20278;-62
2021/01/07 00:23:56;;;;;;;10.27;4.83;;;-0.20;99.90;;;;;;5072998;28;20673;-63
2021/01/07 00:26:22;;;;;;;11.50;5.17;;;-0.20;99.90;;;;;;5073059;28;20598;-64
2021/01/07 00:28:49;;;;;;;6.50;4.07;;;-0.20;99.90;;;;;;5073045;28;20237;-64
2021/01/07 00:31:15;;;;;;;7.27;4.57;;;-0.30;99.90;;;;;;5072292;28;20250;-63
2021/01/07 00:33:43;;;;;;;8.60;4.70;;;-0.30;99.90;;;;;;5072378;28;20233;-63
2021/01/07 00:36:09;;;;;;;8.87;5.50;;;-0.30;99.90;;;;;;5072589;28;20230;-62
2021/01/07 00:38:36;;;;;;;9.50;4.87;;;-0.30;99.90;;;;;;5072645;28;20230;-61
2021/01/07 00:41:03;;;;;;;9.60;5.10;;;-0.40;99.90;;;;;;5072360;28;20183;-63
2021/01/07 00:43:29;;;;;;;10.20;5.90;;;-0.30;99.90;;;;;;5072561;28;20233;-64
2021/01/07 00:45:56;;;;;;;8.03;4.77;;;-0.30;99.90;;;;;;5072486;28;20275;-63
2021/01/07 00:48:22;;;;;;;10.57;5.27;;;-0.30;99.90;;;;;;5072386;28;20218;-64
2021/01/07 00:50:50;;;;;;;7.67;4.67;;;-0.30;99.90;;;;;;5072713;28;20308;-63
2021/01/07 00:53:16;;;;;;;7.87;5.00;;;-0.30;99.90;;;;;;5072278;28;20183;-62
2021/01/07 00:55:42;;;;;;;8.83;4.50;;;-0.30;99.90;;;;;;5072456;28;20620;-65
2021/01/07 00:58:09;;;;;;;10.33;5.37;;;-0.30;99.90;;;;;;5072083;28;20273;-63
2021/01/07 01:00:36;;;;;;;12.37;4.23;;;-0.30;99.90;;;;;;5072589;28;20222;-62
2021/01/07 01:03:03;;;;;;;9.80;4.60;;;-0.30;99.90;;;;;;5071912;28;20198;-63
2021/01/07 01:05:30;;;;;;;9.13;5.43;;;-0.40;99.90;;;;;;5071883;28;20659;-62
2021/01/07 01:07:57;;;;;;;8.80;4.90;;;-0.30;99.90;;;;;;5071737;28;20682;-63
2021/01/07 01:10:24;;;;;;;8.30;4.53;;;-0.30;99.90;;;;;;5072175;28;20272;-63
2021/01/07 01:12:50;;;;;;;7.80;4.77;;;-0.30;99.90;;;;;;5071218;28;20693;-63
2021/01/07 01:15:17;;;;;;;7.03;4.23;;;-0.30;99.90;;;;;;5071983;28;20592;-63
2021/01/07 01:17:44;;;;;;;9.67;5.17;;;-0.40;99.90;;;;;;5072166;28;20223;-61
2021/01/07 01:20:12;;;;;;;6.73;4.13;;;-0.30;99.90;;;;;;5072542;28;20218;-63
2021/01/07 01:22:40;;;;;;;7.10;3.57;;;-0.30;99.90;;;;;;5071835;28;20234;-61
2021/01/07 01:25:10;;;;;;;8.70;5.30;;;-0.30;99.90;;;;;;5071681;28;20226;-62
2021/01/07 01:27:37;;;;;;;8.90;5.30;;;-0.30;99.90;;;;;;5071676;28;20277;-63
2021/01/07 01:30:05;;;;;;;10.27;5.13;;;-0.30;99.90;;;;;;5071712;28;20211;-66
2021/01/07 01:32:31;;;;;;;8.33;5.20;;;-0.30;99.90;;;;;;5070931;28;20275;-63
2021/01/07 01:34:58;;;;;;;8.63;4.73;;;-0.30;99.90;;;;;;5071439;28;20214;-63
2021/01/07 01:37:24;;;;;;;7.20;3.93;;;-0.30;99.90;;;;;;5071137;28;20231;-64
2021/01/07 01:39:50;;;;;;;7.27;4.57;;;-0.30;99.90;;;;;;5071515;28;20250;-62
2021/01/07 01:42:24;;;;;;;8.97;5.10;;;-0.40;99.90;;;;;;5071067;28;20194;-63
2021/01/07 01:44:50;;;;;;;8.77;4.97;;;-0.30;99.90;;;;;;5070939;28;20205;-63
2021/01/07 01:47:17;;;;;;;10.00;5.40;;;-0.30;99.90;;;;;;5071740;28;20206;-63
2021/01/07 01:49:46;;;;;;;10.83;5.57;;;-0.30;99.90;;;;;;5071556;28;20258;-62
2021/01/07 01:52:13;;;;;;;10.53;5.80;;;-0.30;99.90;;;;;;5071356;28;20323;-62
2021/01/07 01:54:39;;;;;;;5.90;3.23;;;-0.30;99.90;;;;;;5071165;28;20226;-63
2021/01/07 01:57:08;;;;;;;9.40;5.20;;;-0.30;99.90;;;;;;5070786;28;20278;-62
2021/01/07 01:59:35;;;;;;;7.50;4.83;;;-0.30;99.90;;;;;;5070883;28;20279;-62
2021/01/07 02:02:06;;;;;;;8.53;5.00;;;-0.30;99.90;;;;;;5072006;28;20253;-64
2021/01/07 02:04:33;;;;;;;9.77;4.87;;;-0.30;99.90;;;;;;5071155;28;20206;-62
2021/01/07 02:07:01;;;;;;;8.63;5.37;;;-0.20;99.90;;;;;;5071370;28;20190;-63
2021/01/07 02:09:28;;;;;;;9.67;5.83;;;-0.20;99.90;;;;;;5071606;28;20233;-63
2021/01/07 02:11:58;;;;;;;5.03;3.73;;;-0.20;99.90;;;;;;5071561;28;20691;-63
2021/01/07 02:14:25;;;;;;;4.60;3.47;;;-0.10;99.90;;;;;;5071274;28;20194;-63
2021/01/07 02:16:52;;;;;;;7.33;4.37;;;-0.10;99.90;;;;;;5071330;28;20221;-64
2021/01/07 02:19:19;;;;;;;6.13;4.10;;;-0.10;99.90;;;;;;5071327;28;20238;-62
2021/01/07 02:21:46;;;;;;;10.03;5.40;;;-0.10;99.90;;;;;;5070793;28;20237;-63
2021/01/07 02:24:13;;;;;;;8.50;4.73;;;-0.10;99.90;;;;;;5070465;28;20681;-61
2021/01/07 02:26:41;;;;;;;5.37;2.83;;;0.00;99.90;;;;;;5070893;28;20183;-63
2021/01/07 02:29:08;;;;;;;9.20;4.70;;;0.00;99.90;;;;;;5071451;28;20607;-62
2021/01/07 02:31:34;;;;;;;8.37;5.03;;;0.00;99.90;;;;;;5070874;28;20372;-63
2021/01/07 02:34:00;;;;;;;7.53;4.20;;;0.00;99.90;;;;;;5071066;28;20226;-64
2021/01/07 02:36:27;;;;;;;7.63;4.67;;;0.00;99.90;;;;;;5070815;28;20273;-64
2021/01/07 02:38:55;;;;;;;8.07;4.53;;;0.00;99.90;;;;;;5071343;28;20583;-62
2021/01/07 02:41:21;;;;;;;6.33;3.70;;;0.00;99.90;;;;;;5071074;28;20245;-64
2021/01/07 02:43:47;;;;;;;7.60;4.77;;;0.00;99.90;;;;;;5070877;28;20199;-62
2021/01/07 02:46:14;;;;;;;8.70;4.80;;;0.00;99.90;;;;;;5071530;28;20219;-63
2021/01/07 02:48:40;;;;;;;6.53;4.57;;;0.00;99.90;;;;;;5070987;28;20226;-62
2021/01/07 02:51:07;;;;;;;7.77;3.67;;;0.10;99.90;;;;;;5070982;28;20267;-63
2021/01/07 02:53:33;;;;;;;8.73;4.37;;;0.00;99.90;;;;;;5071148;28;20245;-63
2021/01/07 02:56:01;;;;;;;6.40;3.57;;;0.00;99.90;;;;;;5070599;28;20549;-64
2021/01/07 02:58:27;;;;;;;9.07;5.03;;;0.00;99.90;;;;;;5073388;28;20270;-62
2021/01/07 03:00:53;;;;;;;7.83;4.60;;;0.00;99.90;;;;;;5074623;28;20604;-64
2021/01/07 03:03:20;;;;;;;6.73;4.13;;;0.00;99.90;;;;;;5074753;28;20195;-64
2021/01/07 03:05:46;;;;;;;5.80;3.63;;;0.10;99.90;;;;;;5075090;28;20594;-62
2021/01/07 03:08:13;;;;;;;7.63;4.63;;;0.10;99.90;;;;;;5073863;28;20222;-65
2021/01/07 03:10:39;;;;;;;3.37;2.00;;;0.10;99.90;;;;;;5074067;28;20376;-64
2021/01/07 03:13:06;;;;;;;4.57;3.10;;;0.10;99.90;;;;;;5073995;28;20239;-64
2021/01/07 03:15:33;;;;;;;5.03;3.10;;;0.10;99.90;;;;;;5074129;28;20253;-65
2021/01/07 03:17:59;;;;;;;7.57;4.40;;;0.10;99.90;;;;;;5073970;28;20311;-62
2021/01/07 03:20:25;;;;;;;9.10;5.07;;;0.10;99.90;;;;;;5073911;28;20231;-63
2021/01/07 03:22:52;;;;;;;8.10;4.17;;;0.10;99.90;;;;;;5074097;28;20226;-63
2021/01/07 03:25:18;;;;;;;6.97;4.60;;;0.10;99.90;;;;;;5073950;28;20238;-62
2021/01/07 03:27:45;;;;;;;8.33;4.40;;;0.10;99.90;;;;;;5073572;28;20222;-64
2021/01/07 03:30:13;;;;;;;8.23;4.40;;;0.10;99.90;;;;;;5073553;28;20703;-62
2021/01/07 03:32:39;;;;;;;8.20;5.23;;;0.10;99.90;;;;;;5073580;28;20250;-64
2021/01/07 03:35:07;;;;;;;7.70;3.47;;;0.10;99.90;;;;;;5074191;28;20206;-62
2021/01/07 03:37:33;;;;;;;6.60;3.97;;;0.10;99.90;;;;;;5073983;28;20304;-63
2021/01/07 03:40:00;;;;;;;7.10;3.53;;;0.10;99.90;;;;;;5073636;28;20523;-62
2021/01/07 03:42:26;;;;;;;6.13;4.50;;;0.10;99.90;;;;;;5073565;28;20681;-66
2021/01/07 03:44:53;;;;;;;10.30;4.70;;;0.10;99.90;;;;;;5074158;28;20308;-62
2021/01/07 03:47:20;;;;;;;7.40;4.07;;;0.10;99.90;;;;;;5073203;28;20235;-65
2021/01/07 03:49:46;;;;;;;7.23;4.77;;;0.10;99.90;;;;;;5073055;28;20253;-62
2021/01/07 03:52:13;;;;;;;7.03;4.73;;;0.10;99.90;;;;;;5073298;28;20718;-63
2021/01/07 03:54:39;;;;;;;8.23;3.87;;;0.10;99.90;;;;;;5073346;28;20234;-63
2021/01/07 03:57:07;;;;;;;5.53;3.43;;;0.10;99.90;;;;;;5073187;28;20215;-63
2021/01/07 03:59:33;;;;;;;6.30;4.50;;;0.10;99.90;;;;;;5073572;28;20240;-63
2021/01/07 04:02:00;;;;;;;6.43;4.07;;;0.10;99.90;;;;;;5073325;28;20198;-64
2021/01/07 04:04:27;;;;;;;7.40;4.40;;;0.10;99.90;;;;;;5073317;28;20284;-63
2021/01/07 04:06:54;;;;;;;7.87;4.70;;;0.10;99.90;;;;;;5073395;28;20271;-62
2021/01/07 04:09:20;;;;;;;6.47;4.43;;;0.10;99.90;;;;;;5073561;28;20179;-63
2021/01/07 04:11:47;;;;;;;6.47;4.67;;;0.10;99.90;;;;;;5073419;28;20214;-63
2021/01/07 04:14:13;;;;;;;6.83;4.47;;;0.10;99.90;;;;;;5072978;28;20214;-62
2021/01/07 04:16:40;;;;;;;6.33;4.13;;;0.10;99.90;;;;;;5072693;28;20223;-62
2021/01/07 04:19:06;;;;;;;5.53;3.53;;;0.10;99.90;;;;;;5073455;28;20214;-63
2021/01/07 04:21:44;;;;;;;7.07;4.60;;;0.10;99.90;;;;;;5072954;28;20697;-63
2021/01/07 04:24:11;;;;;;;8.40;4.10;;;0.10;99.90;;;;;;5073074;28;20269;-62
2021/01/07 04:26:39;;;;;;;6.07;3.50;;;0.10;99.90;;;;;;5072627;28;20325;-62
2021/01/07 04:29:06;;;;;;;8.67;4.50;;;0.10;99.90;;;;;;5073225;28;20188;-64
2021/01/07 04:31:32;;;;;;;7.77;3.93;;;0.10;99.90;;;;;;5072681;28;20250;-63
2021/01/07 04:33:59;;;;;;;10.10;4.47;;;0.00;99.90;;;;;;5073300;28;20241;-64
2021/01/07 04:36:25;;;;;;;7.40;4.30;;;0.10;99.90;;;;;;5072543;28;20685;-64
2021/01/07 04:38:53;;;;;;;8.03;4.73;;;0.00;99.90;;;;;;5073062;28;20224;-65
2021/01/07 04:41:19;;;;;;;6.37;4.03;;;0.00;99.90;;;;;;5071921;28;20295;-62
2021/01/07 04:43:46;;;;;;;6.30;3.43;;;0.00;99.90;;;;;;5072486;28;20707;-61
2021/01/07 04:46:13;;;;;;;7.97;4.67;;;0.00;99.90;;;;;;5072857;28;20554;-63
2021/01/07 04:48:39;;;;;;;7.90;3.67;;;0.10;99.90;;;;;;5072094;28;20215;-63
2021/01/07 04:51:06;;;;;;;8.40;4.90;;;0.10;99.90;;;;;;5072054;28;20309;-63
2021/01/07 04:53:32;;;;;;;6.20;4.17;;;0.10;99.90;;;;;;5072531;28;20248;-62
2021/01/07 04:56:00;;;;;;;7.10;4.57;;;0.00;99.90;;;;;;5072264;28;20252;-62
2021/01/07 04:58:26;;;;;;;6.33;4.27;;;0.10;99.90;;;;;;5072184;28;20221;-65
2021/01/07 05:00:54;;;;;;;11.80;4.90;;;0.10;99.90;;;;;;5072277;28;20233;-63
2021/01/07 05:03:21;;;;;;;9.77;5.20;;;0.10;99.90;;;;;;5072268;28;20267;-62
2021/01/07 05:05:49;;;;;;;6.47;3.20;;;0.10;99.90;;;;;;5072201;28;20214;-61
2021/01/07 05:08:17;;;;;;;9.97;4.80;;;0.10;99.90;;;;;;5071932;28;20197;-63
2021/01/07 05:10:44;;;;;;;8.83;4.77;;;0.10;99.90;;;;;;5071971;28;20285;-63
2021/01/07 05:13:13;;;;;;;7.77;4.43;;;0.10;99.90;;;;;;5071693;28;20544;-61
2021/01/07 05:15:41;;;;;;;6.13;4.17;;;0.10;99.90;;;;;;5072120;28;20272;-64
2021/01/07 05:18:08;;;;;;;7.50;3.87;;;0.10;99.90;;;;;;5072161;28;20202;-63
2021/01/07 05:20:34;;;;;;;10.50;5.13;;;0.00;99.90;;;;;;5051503;28;20279;-62
2021/01/07 05:23:01;;;;;;;10.27;5.50;;;0.00;99.90;;;;;;5051826;28;20199;-64
2021/01/07 05:25:29;;;;;;;10.20;5.63;;;0.00;99.90;;;;;;5052168;28;20251;-64
2021/01/07 05:27:58;;;;;;;11.60;5.87;;;0.00;99.90;;;;;;5055684;28;20183;-63
2021/01/07 05:30:27;;;;;;;8.97;5.67;;;0.00;99.90;;;;;;5071926;28;20179;-62
2021/01/07 05:33:00;;;;;;;9.57;5.57;;;0.00;99.90;;;;;;5071847;28;20254;-62
2021/01/07 05:35:26;;;;;;;10.27;5.50;;;0.00;99.90;;;;;;5071569;28;20194;-63
2021/01/07 05:37:53;;;;;;;9.60;5.77;;;0.00;99.90;;;;;;5072821;28;20222;-62
2021/01/07 05:40:22;;;;;;;10.43;4.77;;;0.00;99.90;;;;;;5072453;28;20709;-62
2021/01/07 05:42:48;;;;;;;12.70;5.57;;;0.00;99.90;;;;;;5071149;28;20276;-63
2021/01/07 05:45:16;;;;;;;6.90;3.97;;;0.00;99.90;;;;;;5072052;28;20226;-62
2021/01/07 05:47:45;;;;;;;9.93;5.40;;;0.00;99.90;;;;;;5071683;28;20221;-63
2021/01/07 05:50:13;;;;;;;8.50;5.80;;;0.00;99.90;;;;;;5071912;28;20266;-62
2021/01/07 05:52:44;;;;;;;10.73;5.37;;;0.00;99.90;;;;;;5071368;28;20309;-64
2021/01/07 05:55:12;;;;;;;6.63;4.53;;;0.10;99.90;;;;;;5071685;28;20207;-62
2021/01/07 05:57:39;;;;;;;10.27;5.07;;;0.10;99.90;;;;;;5071541;28;20199;-62
2021/01/07 06:00:10;;;;;;;10.20;4.93;;;0.10;99.90;;;;;;5071640;28;20230;-63
2021/01/07 06:02:38;;;;;;;9.33;5.40;;;0.10;99.90;;;;;;5071676;28;20278;-62
2021/01/07 06:05:08;;;;;;;10.17;5.20;;;0.10;99.90;;;;;;5071399;28;20222;-64
2021/01/07 06:07:36;;;;;;;8.47;4.93;;;0.10;99.90;;;;;;5071432;28;20274;-62
2021/01/07 06:10:03;;;;;;;9.20;5.60;;;0.10;99.90;;;;;;5071486;28;20182;-64
2021/01/07 06:12:30;;;;;;;9.87;4.90;;;0.10;99.90;;;;;;5071326;28;20250;-63
2021/01/07 06:15:00;;;;;;;8.23;4.33;;;0.10;99.90;;;;;;5071616;28;20285;-64
2021/01/07 06:17:29;;;;;;;11.63;5.20;;;0.20;99.90;;;;;;5071595;28;20523;-62
2021/01/07 06:19:56;;;;;;;3.73;2.77;;;0.20;99.90;;;;;;5071590;28;20225;-63
2021/01/07 06:22:24;;;;;;;9.60;4.43;;;0.20;99.90;;;;;;5072047;28;20227;-65
2021/01/07 06:24:55;;;;;;;8.87;4.70;;;0.20;99.90;;;;;;5071082;28;20280;-62
2021/01/07 06:27:27;;;;;;;5.73;3.63;;;0.30;99.90;;;;;;5071139;28;20223;-63
2021/01/07 06:29:56;;;;;;;9.53;5.23;;;0.20;99.90;;;;;;5051381;28;20227;-64
2021/01/07 06:32:23;;;;;;;9.27;4.93;;;0.30;99.90;;;;;;5052549;28;20276;-63
2021/01/07 06:34:52;;;;;;;3.07;2.27;;;0.30;99.90;;;;;;5072304;28;20212;-62
2021/01/07 06:37:33;;;;;;;6.87;4.47;;;0.30;99.90;;;;;;5074738;28;20270;-64
2021/01/07 06:40:02;;;;;;;6.20;2.93;;;0.30;99.90;;;;;;5075879;28;20187;-63
2021/01/07 06:42:29;;;;;;;8.90;5.27;;;0.30;99.90;;;;;;5075445;28;20214;-61
2021/01/07 06:44:57;;;;;;;7.53;4.40;;;0.30;99.90;;;;;;5075009;28;20294;-61
2021/01/07 06:47:24;;;;;;;5.60;3.33;;;0.30;99.90;;;;;;5075169;28;20655;-62
2021/01/07 06:49:51;;;;;;;7.73;4.43;;;0.30;99.90;;;;;;5074277;28;20226;-63
2021/01/07 06:52:21;;;;;;;4.30;2.27;;;0.30;99.90;;;;;;5075525;28;20248;-64
2021/01/07 06:54:49;;;;;;;6.30;4.07;;;0.30;99.90;;;;;;5075428;28;20635;-66
2021/01/07 06:57:16;;;;;;;6.93;4.73;;;0.30;99.90;;;;;;5075255;28;20202;-62
2021/01/07 06:59:57;;;;;;;6.93;3.80;;;0.30;99.90;;;;;;5074756;28;20229;-64
2021/01/07 07:02:24;;;;;;;8.97;3.97;;;0.30;99.90;;;;;;5074913;28;20233;-65
2021/01/07 07:04:59;;;;;;;6.57;4.00;;;0.30;99.90;;;;;;5074758;28;20234;-64
2021/01/07 07:07:55;;;;;;;6.90;4.87;;;0.30;99.90;;;;;;5075143;28;20216;-65
2021/01/07 07:11:01;;;;;;;10.93;5.77;;;0.30;99.90;;;;;;5074734;28;20225;-64
2021/01/07 07:13:32;;;;;;;9.13;5.23;;;0.30;99.90;;;;;;5062501;28;20330;-63
2021/01/07 07:16:03;;;;;;;9.47;4.80;;;0.30;99.90;;;;;;5074767;28;20249;-64
2021/01/07 07:18:34;;;;;;;8.70;5.40;;;0.30;99.90;;;;;;5073112;28;20187;-63
2021/01/07 07:21:14;;;;;;;9.77;5.40;;;0.20;99.90;;;;;;5074737;28;20286;-63
2021/01/07 07:23:42;;;;;;;7.27;4.53;;;0.30;99.90;;;;;;5074201;28;20187;-62
2021/01/07 07:26:12;;;;;;;5.17;3.43;;;0.30;99.90;;;;;;5074224;28;20207;-62
2021/01/07 07:28:43;;;;;;;8.87;5.10;;;0.30;99.90;;;;;;5074367;28;20528;-64
2021/01/07 07:31:10;;;;;;;8.87;5.20;;;0.30;99.90;;;;;;5074006;28;20233;-65
2021/01/07 07:33:39;;;;;;;9.03;4.90;;;0.30;99.90;;;;;;5074013;28;20210;-63
2021/01/07 07:36:08;;;;;;;10.10;5.80;;;0.30;99.90;;;;;;5073467;28;20226;-61
2021/01/07 07:38:37;;;;;;;8.73;5.07;;;0.30;99.90;;;;;;5074064;28;20183;-62
2021/01/07 07:41:06;;;;;;;8.57;5.00;;;0.20;99.90;;;;;;5073500;28;20227;-64
2021/01/07 07:43:34;;;;;;;10.30;5.50;;;0.20;99.90;;;;;;5073709;28;20218;-63
2021/01/07 07:46:02;;;;;;;9.40;5.73;;;0.20;99.90;;;;;;5072861;28;20226;-63
2021/01/07 07:48:30;;;;;;;9.80;5.67;;;0.10;99.90;;;;;;5074412;28;20217;-63
2021/01/07 07:51:07;;;;;;;11.63;6.57;;;0.20;99.90;;;;;;5074186;28;20254;-63
2021/01/07 07:53:34;;;;;;;11.87;6.67;;;0.10;99.90;;;;;;5054083;28;20648;-64
2021/01/07 07:56:01;;;;;;;12.10;6.90;;;0.10;99.90;;;;;;5070237;28;20229;-65
2021/01/07 07:58:27;;;;;;;10.83;6.40;;;0.10;99.90;;;;;;5074171;28;20214;-63
2021/01/07 08:00:55;;;;;;;11.53;7.00;;;0.10;99.90;;;;;;5072579;28;20223;-63
2021/01/07 08:03:27;;;;;;;12.60;6.17;;;0.10;99.90;;;;;;5073367;28;20611;-63
2021/01/07 08:05:54;;;;;;;13.17;8.10;;;0.20;99.90;;;;;;5073063;28;20274;-62
2021/01/07 08:08:25;;;;;;;11.87;7.57;;;0.20;99.90;;;;;;5073732;28;20201;-62
2021/01/07 08:10:52;;;;;;;11.43;6.73;;;0.20;99.90;;;;;;5073513;28;20667;-63
2021/01/07 08:13:22;;;;;;;12.00;6.20;;;0.20;99.90;;;;;;5072888;28;20273;-62
2021/01/07 08:15:50;;;;;;;11.73;7.27;;;0.20;99.90;;;;;;5072899;28;20301;-63
2021/01/07 08:18:18;;;;;;;10.97;6.47;;;0.20;99.90;;;;;;5073279;28;20191;-64
2021/01/07 08:20:46;;;;;;;10.97;6.53;;;0.20;99.90;;;;;;5073589;28;20199;-63
2021/01/07 08:23:14;;;;;;;14.20;7.10;;;0.20;99.90;;;;;;5073297;28;20219;-62
2021/01/07 08:25:42;;;;;;;8.27;4.07;;;0.20;99.90;;;;;;5072374;28;20226;-63
2021/01/07 08:28:25;;;;;;;10.97;6.87;;;0.20;99.90;;;;;;5073135;28;20199;-63
2021/01/07 08:30:55;;;;;;;13.83;6.40;;;0.20;99.90;;;;;;5072738;28;20210;-62
2021/01/07 08:33:23;;;;;;;10.20;6.10;;;0.20;99.90;;;;;;5073010;28;20240;-63
2021/01/07 08:35:52;;;;;;;8.77;5.90;;;0.20;99.90;;;;;;5072891;28;20279;-63
2021/01/07 08:38:25;;;;;;;11.27;6.17;;;0.30;99.90;;;;;;5072642;28;20218;-62
2021/01/07 08:40:54;;;;;;;11.40;6.27;;;0.30;99.90;;;;;;5072684;28;20279;-63
2021/01/07 08:43:20;;;;;;;12.63;6.43;;;0.30;99.90;;;;;;5072028;28;20241;-63
2021/01/07 08:45:47;;;;;;;11.13;5.53;;;0.30;99.90;;;;;;5071905;28;20195;-62
2021/01/07 08:48:13;;;;;;;12.37;6.47;;;0.30;99.90;;;;;;5072875;28;20276;-62
2021/01/07 08:50:40;;;;;;;10.90;6.40;;;0.30;99.90;;;;;;5072347;28;20726;-64
2021/01/07 08:53:13;;;;;;;10.77;5.80;;;0.30;99.90;;;;;;5072651;28;20306;-63
2021/01/07 08:55:51;;;;;;;11.77;6.00;;;0.40;99.90;;;;;;5072134;28;20183;-61
2021/01/07 08:58:21;;;;;;;8.87;5.60;;;0.40;99.90;;;;;;5071980;28;20698;-63
2021/01/07 09:00:48;;;;;;;9.70;5.73;;;0.40;99.90;;;;;;5072401;28;20282;-63
2021/01/07 09:03:15;;;;;;;9.70;6.30;;;0.40;99.90;;;;;;5071822;28;20187;-62
2021/01/07 09:05:41;;;;;;;9.43;5.53;;;0.40;99.90;;;;;;5072209;28;20285;-62
2021/01/07 09:08:09;;;;;;;11.73;5.77;;;0.40;99.90;;;;;;5072523;28;20610;-63
2021/01/07 09:10:36;;;;;;;10.07;6.40;;;0.40;99.90;;;;;;5072391;28;20590;-63
2021/01/07 09:13:18;;;;;;;10.33;6.10;;;0.50;99.90;;;;;;5072001;28;20289;-61
2021/01/07 09:15:45;;;;;;;11.97;6.00;;;0.50;99.90;;;;;;5071377;28;20230;-61
2021/01/07 09:18:11;;;;;;;10.27;5.60;;;0.50;99.90;;;;;;5071891;28;20187;-64
2021/01/07 09:20:38;;;;;;;9.03;5.67;;;0.50;99.90;;;;;;5072214;28;20218;-61
2021/01/07 09:23:05;;;;;;;12.30;6.03;;;0.50;99.90;;;;;;5071822;28;20222;-64
2021/01/07 09:25:33;;;;;;;10.33;6.03;;;0.50;99.90;;;;;;5072400;28;20281;-63
2021/01/07 09:28:00;;;;;;;10.77;5.67;;;0.60;99.90;;;;;;5071046;28;20199;-62
2021/01/07 09:30:27;;;;;;;10.80;5.90;;;0.60;99.90;;;;;;5072389;28;20179;-62
2021/01/07 09:32:56;;;;;;;8.87;5.43;;;0.70;99.90;;;;;;5072124;28;20244;-62
2021/01/07 09:35:23;;;;;;;11.33;5.83;;;0.70;99.90;;;;;;5071607;28;20219;-62
2021/01/07 09:37:51;;;;;;;8.93;5.43;;;0.70;99.90;;;;;;5071619;28;20295;-62
2021/01/07 09:40:17;;;;;;;7.17;4.93;;;0.70;99.90;;;;;;5074549;28;20205;-63
2021/01/07 09:42:44;;;;;;;8.13;5.03;;;0.70;99.90;;;;;;5072190;28;20190;-64
2021/01/07 09:45:12;;;;;;;9.53;5.57;;;0.70;99.90;;;;;;5085902;28;20225;-62
2021/01/07 09:47:39;;;;;;;11.80;5.50;;;0.70;99.90;;;;;;5073384;28;20202;-64
2021/01/07 09:50:08;;;;;;;8.83;5.17;;;0.70;99.90;;;;;;5068821;28;20309;-61
2021/01/07 09:52:34;;;;;;;9.27;5.63;;;0.70;99.90;;;;;;5070253;28;20298;-62
2021/01/07 09:55:01;;;;;;;10.67;4.93;;;0.70;99.90;;;;;;5066647;28;20649;-62
2021/01/07 09:57:28;;;;;;;8.03;4.93;;;0.70;99.90;;;;;;5070091;28;20228;-64
2021/01/07 09:59:55;;;;;;;7.30;4.40;;;0.70;99.90;;;;;;5071682;28;20214;-63
2021/01/07 10:02:21;;;;;;;9.87;5.03;;;0.70;99.90;;;;;;5071269;28;20234;-62
2021/01/07 10:04:48;;;;;;;9.20;5.33;;;0.80;99.90;;;;;;5070941;28;20218;-62
2021/01/07 10:07:14;;;;;;;8.13;5.03;;;0.80;99.90;;;;;;5074151;28;20317;-62
2021/01/07 10:09:41;;;;;;;7.17;4.60;;;0.70;99.90;;;;;;5075564;28;20336;-62
2021/01/07 10:12:09;;;;;;;10.73;5.23;;;0.70;99.90;;;;;;5073994;28;20246;-63
2021/01/07 10:14:36;;;;;;;7.73;4.70;;;0.80;99.90;;;;;;5074583;28;20226;-62
2021/01/07 10:17:05;;;;;;;7.70;4.97;;;0.80;99.90;;;;;;5075322;28;20277;-63
2021/01/07 10:19:34;;;;;;;7.70;4.67;;;0.80;99.90;;;;;;5074341;28;20187;-64
2021/01/07 10:22:03;;;;;;;9.33;4.70;;;0.90;99.90;;;;;;5075055;28;20321;-66
2021/01/07 10:24:30;;;;;;;6.20;4.37;;;0.90;99.90;;;;;;5075813;28;20226;-64
2021/01/07 10:27:02;;;;;;;8.97;4.90;;;0.90;99.90;;;;;;5075280;28;20326;-65
2021/01/07 10:29:29;;;;;;;5.87;3.77;;;1.00;99.90;;;;;;5075140;28;20563;-64
2021/01/07 10:32:02;;;;;;;6.13;3.90;;;1.00;99.90;;;;;;5074626;28;20298;-65
2021/01/07 10:34:30;;;;;;;6.57;4.03;;;1.00;99.90;;;;;;5075513;28;20301;-63
2021/01/07 10:36:58;;;;;;;6.23;3.73;;;0.90;99.90;;;;;;5073186;28;20221;-62
2021/01/07 10:39:25;;;;;;;7.47;4.40;;;1.00;99.90;;;;;;5075354;28;20183;-65
2021/01/07 10:41:56;;;;;;;6.57;3.87;;;1.00;99.90;;;;;;5072296;28;20237;-64
2021/01/07 10:44:23;;;;;;;5.10;3.80;;;1.10;99.90;;;;;;5075462;28;20549;-65
2021/01/07 10:46:54;;;;;;;3.93;3.07;;;1.00;99.90;;;;;;5074535;28;20199;-64
2021/01/07 10:49:20;;;;;;;6.43;3.30;;;1.10;99.90;;;;;;5074966;28;20183;-65
2021/01/07 10:52:16;;;;;;;8.57;3.93;;;1.00;99.90;;;;;;5074278;28;20550;-64
2021/01/07 10:54:53;;;;;;;7.63;3.60;;;1.00;99.90;;;;;;5074486;28;20256;-63
2021/01/07 10:57:45;;;;;;;7.23;3.50;;;1.10;99.90;;;;;;5074926;28;20269;-61
2021/01/07 11:00:21;;;;;;;5.97;3.47;;;1.00;99.90;;;;;;5051830;28;20195;-62
2021/01/07 11:03:08;;;;;;;6.13;3.50;;;1.10;99.90;;;;;;5074703;28;20182;-63
2021/01/07 11:05:37;;;;;;;7.83;3.40;;;1.00;99.90;;;;;;5074668;28;20248;-62
2021/01/07 11:08:15;;;;;;;6.30;3.77;;;1.10;99.90;;;;;;5060125;28;20257;-64
2021/01/07 11:10:49;;;;;;;7.47;3.87;;;1.10;99.90;;;;;;5054757;28;20230;-64
2021/01/07 11:13:16;;;;;;;5.83;3.33;;;1.00;99.90;;;;;;5054567;28;20242;-62
2021/01/07 11:15:44;;;;;;;4.63;3.47;;;1.00;99.90;;;;;;5054278;28;20191;-63
2021/01/07 11:18:14;;;;;;;7.10;3.50;;;1.10;99.90;;;;;;5053739;28;20218;-64
2021/01/07 11:20:44;;;;;;;4.30;2.90;;;1.10;99.90;;;;;;5054912;28;20274;-64
2021/01/07 11:23:11;;;;;;;3.93;2.63;;;1.20;99.90;;;;;;5054162;28;20254;-63
2021/01/07 11:25:38;;;;;;;4.93;2.70;;;1.20;99.90;;;;;;5054371;28;20288;-61
2021/01/07 11:28:06;;;;;;;3.97;2.53;;;1.20;99.90;;;;;;5054451;28;20325;-62
2021/01/07 11:30:33;;;;;;;5.53;2.60;;;1.10;99.90;;;;;;5054757;28;20230;-62
2021/01/07 11:33:03;;;;;;;3.83;2.47;;;1.20;99.90;;;;;;5054916;28;20219;-64
2021/01/07 11:35:30;;;;;;;7.57;2.50;;;1.20;99.90;;;;;;5054341;28;20199;-64
2021/01/07 11:38:03;;;;;;;4.63;2.30;;;1.30;99.90;;;;;;5054167;28;20199;-62
2021/01/07 11:40:36;;;;;;;4.00;1.87;;;1.20;99.90;;;;;;5059634;28;20199;-62
2021/01/07 11:43:29;;;;;;;4.50;1.83;;;1.20;99.90;;;;;;5074550;28;20197;-63
2021/01/07 11:46:00;;;;;;;5.90;2.10;;;1.20;99.90;;;;;;5074854;28;20191;-64
2021/01/07 11:48:30;;;;;;;3.40;1.90;;;1.20;99.90;;;;;;5074044;28;20214;-61
2021/01/07 11:51:00;;;;;;;5.87;2.37;;;1.20;99.90;;;;;;5074295;28;20230;-62
2021/01/07 11:53:28;;;;;;;4.17;1.90;;;1.20;99.90;;;;;;5074098;28;20321;-63
2021/01/07 11:55:58;;;;;;;4.17;2.00;;;1.10;99.90;;;;;;5074558;28;20204;-64
2021/01/07 11:58:27;;;;;;;2.90;2.10;;;1.10;99.90;;;;;;5074087;28;20179;-62
2021/01/07 12:00:54;;;;;;;4.47;2.27;;;1.10;99.90;;;;;;5073414;28;20202;-64
2021/01/07 12:03:26;;;;;;;3.17;1.90;;;1.00;99.90;;;;;;5073559;28;20297;-63
2021/01/07 12:05:56;;;;;;;4.23;2.00;;;1.00;99.90;;;;;;5074387;28;20205;-61
2021/01/07 12:08:35;;;;;;;3.10;1.90;;;1.00;99.90;;;;;;5073632;28;20251;-61
2021/01/07 12:11:04;;;;;;;3.23;1.87;;;0.90;99.90;;;;;;5073296;28;20610;-62
2021/01/07 12:13:40;;;;;;;4.53;2.00;;;0.80;99.90;;;;;;5073896;28;20309;-65
2021/01/07 12:16:15;;;;;;;3.23;1.77;;;0.80;99.90;;;;;;5073492;28;20189;-62
2021/01/07 12:18:43;;;;;;;2.73;1.77;;;0.80;99.90;;;;;;5073613;28;20221;-65
2021/01/07 12:21:11;;;;;;;4.00;2.50;;;0.80;99.90;;;;;;5073581;28;20243;-65
2021/01/07 12:23:41;;;;;;;6.40;2.40;;;0.80;99.90;;;;;;5073711;28;20195;-65
2021/01/07 12:26:10;;;;;;;3.13;2.17;;;0.80;99.90;;;;;;5073081;28;20240;-63
2021/01/07 12:28:40;;;;;;;3.57;1.90;;;0.80;99.90;;;;;;5073240;28;20650;-64
2021/01/07 12:31:08;;;;;;;4.90;2.30;;;0.90;99.90;;;;;;5072407;28;20203;-62
2021/01/07 12:33:47;;;;;;;4.80;1.90;;;0.90;99.90;;;;;;5073038;28;20244;-65
2021/01/07 12:36:25;;;;;;;3.53;1.97;;;0.90;99.90;;;;;;5073255;28;20518;-63
2021/01/07 12:39:04;;;;;;;2.90;2.00;;;0.90;99.90;;;;;;5072807;28;20183;-62
2021/01/07 12:41:42;;;;;;;3.93;2.17;;;1.00;99.90;;;;;;5073006;28;20627;-65
2021/01/07 12:44:13;;;;;;;3.53;2.27;;;1.00;99.90;;;;;;5073053;28;20251;-62
2021/01/07 12:46:46;;;;;;;6.93;2.10;;;1.00;99.90;;;;;;5072886;28;20275;-65
2021/01/07 12:49:15;;;;;;;4.67;2.30;;;0.90;99.90;;;;;;5073131;28;20653;-64
2021/01/07 12:51:42;;;;;;;4.30;2.13;;;0.90;99.90;;;;;;5072771;28;20254;-62
2021/01/07 12:54:09;;;;;;;3.40;2.13;;;1.00;99.90;;;;;;5073074;28;20248;-65
2021/01/07 12:56:46;;;;;;;4.43;1.90;;;1.00;99.90;;;;;;5072728;28;20238;-65
2021/01/07 12:59:17;;;;;;;6.70;2.40;;;1.00;99.90;;;;;;5073004;28;20260;-64
2021/01/07 13:01:52;;;;;;;6.20;2.37;;;0.90;99.90;;;;;;5073213;28;20226;-61